Time;durP1;ratioP1;P1;durP2;ratioP2;P2;SDS_P1;SDS_P2;PMS_P1;PMS_P2;Temp;Humidity;BMP_temperature;BMP_pressure;BME280_temperature;BME280_humidity;BME280_pressure;Samples;Min_cycle;Max_cycle;Signal;HPM_P1;HPM_P2
2022/09/10 00:00:42;;;;;;;1.58;0.17;;;14.80;99.90;;;;;;4999514;28;20102;-84
2022/09/10 00:03:09;;;;;;;0.60;0.10;;;14.90;99.90;;;;;;5001820;28;20142;-84
2022/09/10 00:05:39;;;;;;;0.57;0.15;;;14.90;99.90;;;;;;5000573;28;20038;-84
2022/09/10 00:08:06;;;;;;;0.17;0.10;;;14.90;99.90;;;;;;5004006;28;20033;-84
2022/09/10 00:10:40;;;;;;;0.70;0.15;;;14.90;99.90;;;;;;5003979;28;20050;-84
2022/09/10 00:13:07;;;;;;;5.10;0.15;;;14.90;99.90;;;;;;5001795;28;20022;-84
2022/09/10 00:15:38;;;;;;;0.10;0.00;;;15.20;99.90;;;;;;5002988;28;20041;-85
2022/09/10 00:18:04;;;;;;;;;;;15.00;99.90;;;;;;5002170;28;20026;-84
2022/09/10 00:20:30;;;;;;;0.25;0.08;;;15.00;99.90;;;;;;4997594;28;19939;-84
2022/09/10 00:22:55;;;;;;;0.10;0.03;;;15.10;99.90;;;;;;5003992;28;20479;-84
2022/09/10 00:25:21;;;;;;;0.40;0.10;;;14.90;99.90;;;;;;4997909;28;20038;-84
2022/09/10 00:27:46;;;;;;;0.73;0.00;;;14.90;99.90;;;;;;4996112;28;20027;-84
2022/09/10 00:30:13;;;;;;;0.22;0.15;;;14.90;99.90;;;;;;5004072;28;20547;-85
2022/09/10 00:32:38;;;;;;;0.25;0.10;;;15.00;99.90;;;;;;4998087;28;20613;-84
2022/09/10 00:35:05;;;;;;;0.57;0.10;;;14.80;99.90;;;;;;5002039;28;20104;-84
2022/09/10 00:37:31;;;;;;;1.38;0.20;;;14.80;99.90;;;;;;4999796;28;20038;-84
2022/09/10 00:39:57;;;;;;;0.20;0.10;;;14.70;99.90;;;;;;5001752;28;20177;-84
2022/09/10 00:42:24;;;;;;;0.30;0.10;;;14.70;99.90;;;;;;5001621;28;20049;-84
2022/09/10 00:44:56;;;;;;;0.13;0.10;;;14.90;99.90;;;;;;5006408;28;20109;-85
2022/09/10 00:47:28;;;;;;;0.43;0.10;;;14.70;99.90;;;;;;5010199;28;20041;-84
2022/09/10 00:50:01;;;;;;;1.00;0.20;;;14.70;99.90;;;;;;5004228;28;20100;-84
2022/09/10 00:52:28;;;;;;;0.60;0.20;;;14.70;99.90;;;;;;4994601;28;20022;-85
2022/09/10 00:54:54;;;;;;;0.10;0.00;;;14.60;99.90;;;;;;4993453;28;20482;-84
2022/09/10 00:57:21;;;;;;;1.63;0.52;;;14.70;99.90;;;;;;5007537;28;20549;-84
2022/09/10 00:59:56;;;;;;;1.17;0.20;;;14.50;99.90;;;;;;4995757;28;20023;-85
2022/09/10 01:02:22;;;;;;;1.08;0.30;;;14.50;99.90;;;;;;5001843;28;20033;-84
2022/09/10 01:04:48;;;;;;;1.52;0.20;;;14.40;99.90;;;;;;4993327;28;20034;-84
2022/09/10 01:07:15;;;;;;;1.15;0.15;;;14.20;99.90;;;;;;4997744;28;20121;-85
2022/09/10 01:09:41;;;;;;;1.50;0.20;;;14.30;99.90;;;;;;5003673;28;20431;-84
2022/09/10 01:12:18;;;;;;;0.40;0.10;;;14.30;99.90;;;;;;4994270;28;20061;-84
2022/09/10 01:15:19;;;;;;;1.35;0.45;;;14.20;99.90;;;;;;4994794;28;20033;-84
2022/09/10 01:18:05;;;;;;;1.10;0.22;;;14.30;99.90;;;;;;4989258;28;20018;-84
2022/09/10 01:21:09;;;;;;;0.47;0.13;;;14.30;99.90;;;;;;4999617;28;20089;-84
2022/09/10 01:23:48;;;;;;;0.40;0.10;;;14.30;99.90;;;;;;5002974;28;20400;-84
2022/09/10 01:26:14;;;;;;;2.08;0.20;;;14.40;99.90;;;;;;4996982;28;20022;-84
2022/09/10 01:28:49;;;;;;;0.28;0.20;;;14.40;99.90;;;;;;4997286;28;20153;-84
2022/09/10 01:31:26;;;;;;;0.98;0.30;;;14.40;99.90;;;;;;4998119;28;20038;-84
2022/09/10 01:34:12;;;;;;;1.13;0.43;;;14.40;99.90;;;;;;5002347;28;20105;-84
2022/09/10 01:36:44;;;;;;;0.65;0.13;;;14.50;99.90;;;;;;5009398;28;20113;-84
2022/09/10 01:39:10;;;;;;;;;;;14.60;99.90;;;;;;4998239;28;20029;-84
2022/09/10 01:41:36;;;;;;;2.60;0.35;;;14.60;99.90;;;;;;5009929;28;19906;-84
2022/09/10 01:44:09;;;;;;;0.35;0.20;;;14.60;99.90;;;;;;5001634;28;20046;-84
2022/09/10 01:46:58;;;;;;;0.25;0.00;;;14.60;99.90;;;;;;5023380;23;20080;-85
2022/09/10 01:49:40;;;;;;;0.85;0.20;;;14.60;99.90;;;;;;5027730;28;20520;-84
2022/09/10 01:52:28;;;;;;;0.75;0.32;;;14.70;99.90;;;;;;5002763;28;20014;-85
2022/09/10 01:55:13;;;;;;;0.32;0.20;;;14.70;99.90;;;;;;5026966;28;20033;-84
2022/09/10 01:57:47;;;;;;;0.50;0.20;;;14.70;99.90;;;;;;5005301;28;20022;-84
2022/09/10 02:00:15;;;;;;;0.57;0.15;;;14.70;99.90;;;;;;5027872;28;20112;-83
2022/09/10 02:02:56;;;;;;;0.65;0.10;;;14.70;99.90;;;;;;5020531;28;20478;-85
2022/09/10 02:05:25;;;;;;;1.00;0.10;;;14.70;99.90;;;;;;5021802;28;20466;-84
2022/09/10 02:07:56;;;;;;;0.65;0.10;;;14.60;99.90;;;;;;5022876;28;20099;-84
2022/09/10 02:10:22;;;;;;;0.75;0.10;;;14.50;99.90;;;;;;5012052;28;20028;-84
2022/09/10 02:12:48;;;;;;;2.35;0.20;;;14.40;99.90;;;;;;5023755;28;20406;-84
2022/09/10 02:15:17;;;;;;;0.50;0.20;;;14.50;99.90;;;;;;5013263;28;20088;-84
2022/09/10 02:17:45;;;;;;;1.23;0.15;;;14.50;99.90;;;;;;5020737;28;20029;-85
2022/09/10 02:20:13;;;;;;;2.05;0.52;;;14.70;99.90;;;;;;5027008;28;20028;-84
2022/09/10 02:22:43;;;;;;;0.20;0.10;;;14.50;99.90;;;;;;5011634;28;20025;-83
2022/09/10 02:25:09;;;;;;;0.20;0.10;;;14.50;99.90;;;;;;5006028;28;20029;-84
2022/09/10 02:27:35;;;;;;;1.02;0.10;;;14.50;99.90;;;;;;5029671;28;20367;-84
2022/09/10 02:30:01;;;;;;;3.70;0.10;;;14.50;99.90;;;;;;5022840;28;20030;-84
2022/09/10 02:32:27;;;;;;;0.47;0.20;;;14.50;99.90;;;;;;5015257;28;20418;-83
2022/09/10 02:34:53;;;;;;;0.10;0.10;;;14.50;99.90;;;;;;5026923;28;20389;-84
2022/09/10 02:37:19;;;;;;;2.75;0.20;;;14.50;99.90;;;;;;5020787;28;20034;-84
2022/09/10 02:39:45;;;;;;;0.20;0.10;;;14.60;99.90;;;;;;5029939;28;20032;-84
2022/09/10 02:42:14;;;;;;;0.45;0.13;;;14.80;99.90;;;;;;5027334;28;20030;-83
2022/09/10 02:44:40;;;;;;;0.20;0.10;;;14.70;99.90;;;;;;5018318;28;20509;-84
2022/09/10 02:47:05;;;;;;;0.20;0.10;;;14.60;99.90;;;;;;5030634;28;20053;-84
2022/09/10 02:49:32;;;;;;;0.17;0.10;;;14.60;99.90;;;;;;5025463;28;20092;-83
2022/09/10 02:51:58;;;;;;;0.20;0.10;;;14.70;99.90;;;;;;5030923;28;20466;-84
2022/09/10 02:54:23;;;;;;;0.25;0.10;;;14.60;99.90;;;;;;5020974;28;20071;-84
2022/09/10 02:56:49;;;;;;;1.20;0.13;;;14.60;99.90;;;;;;5032569;28;20109;-84
2022/09/10 02:59:16;;;;;;;0.38;0.10;;;14.80;99.90;;;;;;5026448;28;20469;-84
2022/09/10 03:01:42;;;;;;;0.63;0.10;;;14.70;99.90;;;;;;5034145;28;20029;-84
2022/09/10 03:04:08;;;;;;;0.20;0.05;;;14.70;99.90;;;;;;5008334;28;20099;-84
2022/09/10 03:06:34;;;;;;;0.00;0.00;;;14.60;99.90;;;;;;5026322;28;20457;-82
2022/09/10 03:09:00;;;;;;;0.52;0.10;;;14.50;99.90;;;;;;5033714;28;20021;-84
2022/09/10 03:11:26;;;;;;;0.20;0.00;;;14.50;99.90;;;;;;5034171;28;20024;-85
2022/09/10 03:13:52;;;;;;;0.88;0.20;;;14.50;99.90;;;;;;5014149;28;20138;-83
2022/09/10 03:16:19;;;;;;;0.10;0.10;;;14.40;99.90;;;;;;5016339;28;20025;-85
2022/09/10 03:18:44;;;;;;;0.10;0.10;;;14.40;99.90;;;;;;5022336;28;20056;-84
2022/09/10 03:21:11;;;;;;;3.50;0.90;;;14.40;99.90;;;;;;5018100;28;20029;-83
2022/09/10 03:23:38;;;;;;;0.57;0.28;;;14.30;99.90;;;;;;5017003;28;20092;-84
2022/09/10 03:26:03;;;;;;;1.27;0.20;;;14.30;99.90;;;;;;5024079;28;20167;-83
2022/09/10 03:28:29;;;;;;;0.60;0.20;;;14.20;99.90;;;;;;5023805;28;20520;-84
2022/09/10 03:30:54;;;;;;;0.28;0.20;;;14.20;99.90;;;;;;5033986;28;20040;-84
2022/09/10 03:33:20;;;;;;;1.35;0.20;;;14.10;99.90;;;;;;5028866;28;20026;-84
2022/09/10 03:35:47;;;;;;;1.05;0.32;;;14.30;99.90;;;;;;5023563;28;20152;-84
2022/09/10 03:38:13;;;;;;;1.30;0.20;;;14.20;99.90;;;;;;5032866;28;20041;-83
2022/09/10 03:40:39;;;;;;;1.45;0.30;;;14.10;99.90;;;;;;5033686;28;20013;-84
2022/09/10 03:43:04;;;;;;;2.05;0.28;;;14.10;99.90;;;;;;5033949;28;20025;-84
2022/09/10 03:45:30;;;;;;;0.63;0.20;;;14.20;99.90;;;;;;5033168;28;20079;-84
2022/09/10 03:47:56;;;;;;;1.88;0.45;;;14.10;99.90;;;;;;5032864;28;20033;-84
2022/09/10 03:50:22;;;;;;;0.25;0.13;;;14.10;99.90;;;;;;5033899;28;20053;-84
2022/09/10 03:52:47;;;;;;;0.43;0.20;;;14.10;99.90;;;;;;5032721;28;20748;-84
2022/09/10 03:55:13;;;;;;;0.38;0.20;;;14.10;99.90;;;;;;5033520;28;20444;-83
2022/09/10 03:57:40;;;;;;;0.82;0.20;;;13.90;99.90;;;;;;5033233;28;20021;-84
2022/09/10 04:00:10;;;;;;;0.40;0.20;;;14.00;99.90;;;;;;5033636;28;20022;-84
2022/09/10 04:02:36;;;;;;;0.45;0.10;;;13.90;99.90;;;;;;5025436;28;20508;-84
2022/09/10 04:05:03;;;;;;;1.58;0.20;;;14.20;99.90;;;;;;5033577;28;20037;-83
2022/09/10 04:07:29;;;;;;;0.82;0.10;;;13.90;99.90;;;;;;5032876;28;20023;-84
2022/09/10 04:09:54;;;;;;;0.20;0.10;;;13.80;99.90;;;;;;5020543;28;20024;-84
2022/09/10 04:12:20;;;;;;;0.40;0.10;;;13.90;99.90;;;;;;5022282;28;20017;-85
2022/09/10 04:14:46;;;;;;;0.93;0.20;;;13.80;99.90;;;;;;5031585;28;20053;-84
2022/09/10 04:17:11;;;;;;;0.65;0.10;;;13.90;99.90;;;;;;5026707;28;20025;-84
2022/09/10 04:19:39;;;;;;;0.25;0.10;;;13.80;99.90;;;;;;5031568;28;20047;-84
2022/09/10 04:22:05;;;;;;;1.17;0.20;;;13.90;99.90;;;;;;5024632;28;20112;-84
2022/09/10 04:24:30;;;;;;;0.30;0.10;;;13.80;99.90;;;;;;5029298;28;20156;-84
2022/09/10 04:26:56;;;;;;;0.95;0.30;;;13.80;99.90;;;;;;5024522;28;20018;-83
2022/09/10 04:29:22;;;;;;;0.10;0.03;;;13.80;99.90;;;;;;5022952;28;20018;-83
2022/09/10 04:31:47;;;;;;;0.32;0.10;;;13.70;99.90;;;;;;5033520;28;20471;-84
2022/09/10 04:34:13;;;;;;;0.25;0.10;;;13.70;99.90;;;;;;5018643;28;20026;-85
2022/09/10 04:36:39;;;;;;;0.10;0.10;;;13.70;99.90;;;;;;5026391;28;20025;-86
2022/09/10 04:39:05;;;;;;;0.57;0.15;;;13.70;99.90;;;;;;5028391;28;20017;-86
2022/09/10 04:41:30;;;;;;;0.13;0.10;;;13.70;99.90;;;;;;5032927;28;20029;-86
2022/09/10 04:43:57;;;;;;;1.23;0.20;;;13.70;99.90;;;;;;5013987;28;20060;-85
2022/09/10 04:46:22;;;;;;;0.60;0.10;;;13.70;99.90;;;;;;5023895;28;20431;-86
2022/09/10 04:48:48;;;;;;;0.38;0.05;;;13.70;99.90;;;;;;5032912;28;20037;-86
2022/09/10 04:51:14;;;;;;;0.10;0.10;;;13.80;99.90;;;;;;5033634;28;20021;-85
2022/09/10 04:53:41;;;;;;;0.22;0.10;;;14.10;99.90;;;;;;5020881;28;20044;-85
2022/09/10 04:56:07;;;;;;;0.40;0.10;;;13.70;99.90;;;;;;5032875;28;20021;-86
2022/09/10 04:58:33;;;;;;;0.38;0.10;;;13.70;99.90;;;;;;5032904;28;20029;-86
2022/09/10 05:00:58;;;;;;;0.10;0.10;;;13.70;99.90;;;;;;5032647;28;20082;-85
2022/09/10 05:03:24;;;;;;;0.57;0.10;;;13.70;99.90;;;;;;5022968;28;20053;-86
2022/09/10 05:05:49;;;;;;;0.28;0.15;;;13.70;99.90;;;;;;5030490;28;20053;-85
2022/09/10 05:08:16;;;;;;;0.43;0.10;;;13.80;99.90;;;;;;5032241;28;20029;-86
2022/09/10 05:10:41;;;;;;;0.60;0.10;;;13.70;99.90;;;;;;5012952;28;20179;-86
2022/09/10 05:13:07;;;;;;;0.30;0.10;;;13.80;99.90;;;;;;5014285;28;20501;-86
2022/09/10 05:15:34;;;;;;;0.10;0.10;;;13.80;99.90;;;;;;5009704;28;20033;-86
2022/09/10 05:18:00;;;;;;;1.67;0.20;;;13.70;99.90;;;;;;5009684;28;20034;-86
2022/09/10 05:20:26;;;;;;;0.17;0.08;;;13.70;99.90;;;;;;5025724;28;20100;-86
2022/09/10 05:22:55;;;;;;;0.55;0.35;;;13.70;99.90;;;;;;5030867;28;20027;-86
2022/09/10 05:25:22;;;;;;;3.30;0.20;;;13.70;99.90;;;;;;5030245;28;20030;-86
2022/09/10 05:27:48;;;;;;;0.08;0.08;;;13.80;99.90;;;;;;5022479;28;20394;-85
2022/09/10 05:30:14;;;;;;;0.22;0.10;;;13.80;99.90;;;;;;5033012;28;20021;-86
2022/09/10 05:32:39;;;;;;;0.25;0.10;;;13.80;99.90;;;;;;5027848;28;20094;-86
2022/09/10 05:35:07;;;;;;;0.30;0.10;;;13.80;99.90;;;;;;5031507;28;20559;-85
2022/09/10 05:37:33;;;;;;;0.20;0.10;;;13.90;99.90;;;;;;5029889;28;20525;-85
2022/09/10 05:39:58;;;;;;;0.40;0.10;;;13.90;99.90;;;;;;5031298;28;20060;-85
2022/09/10 05:42:25;;;;;;;0.68;0.20;;;13.90;99.90;;;;;;5031335;28;20021;-84
2022/09/10 05:44:50;;;;;;;0.10;0.08;;;13.90;99.90;;;;;;5019869;28;20057;-84
2022/09/10 05:47:16;;;;;;;0.40;0.13;;;13.90;99.90;;;;;;5020166;28;20430;-84
2022/09/10 05:49:42;;;;;;;0.40;0.38;;;13.90;99.90;;;;;;5021493;28;20024;-86
2022/09/10 05:52:08;;;;;;;2.38;0.22;;;14.20;99.90;;;;;;5031687;28;20402;-86
2022/09/10 05:54:34;;;;;;;0.10;0.00;;;13.90;99.90;;;;;;5023439;28;20037;-86
2022/09/10 05:57:00;;;;;;;0.63;0.10;;;14.00;99.90;;;;;;5031704;28;20014;-85
2022/09/10 05:59:26;;;;;;;0.57;0.10;;;14.00;99.90;;;;;;5031039;28;20028;-85
2022/09/10 06:01:51;;;;;;;0.90;0.20;;;14.00;99.90;;;;;;5020453;28;20017;-84
2022/09/10 06:04:20;;;;;;;0.17;0.10;;;14.00;99.90;;;;;;5030125;28;20093;-84
2022/09/10 06:06:46;;;;;;;0.50;0.10;;;14.00;99.90;;;;;;5027837;28;20021;-85
2022/09/10 06:09:13;;;;;;;0.40;0.15;;;14.10;99.90;;;;;;5028734;28;20026;-85
2022/09/10 06:11:38;;;;;;;0.45;0.20;;;14.00;99.90;;;;;;5019530;28;20028;-85
2022/09/10 06:14:04;;;;;;;0.82;0.20;;;14.10;99.90;;;;;;5016873;28;20026;-86
2022/09/10 06:16:30;;;;;;;1.40;0.20;;;14.10;99.90;;;;;;5023965;28;20132;-86
2022/09/10 06:18:58;;;;;;;0.10;0.08;;;14.10;99.90;;;;;;5012808;28;20021;-86
2022/09/10 06:21:23;;;;;;;0.10;0.10;;;14.10;99.90;;;;;;5021819;28;20800;-86
2022/09/10 06:23:53;;;;;;;0.45;0.15;;;14.50;99.90;;;;;;5003473;28;20383;-85
2022/09/10 06:26:19;;;;;;;0.40;0.10;;;14.10;99.90;;;;;;5007343;28;20067;-86
2022/09/10 06:28:46;;;;;;;0.15;0.10;;;14.10;99.90;;;;;;5025380;28;20021;-86
2022/09/10 06:31:16;;;;;;;0.73;0.10;;;14.20;99.90;;;;;;5010998;28;20030;-84
2022/09/10 06:33:45;;;;;;;0.73;0.10;;;14.00;99.90;;;;;;5025156;28;20010;-86
2022/09/10 06:36:12;;;;;;;0.03;0.00;;;14.10;99.90;;;;;;5014524;28;20398;-84
2022/09/10 06:38:39;;;;;;;0.52;0.20;;;14.30;99.90;;;;;;5031280;28;20033;-84
2022/09/10 06:41:13;;;;;;;0.40;0.10;;;14.10;99.90;;;;;;5014051;28;20086;-86
2022/09/10 06:43:41;;;;;;;0.40;0.10;;;14.10;99.90;;;;;;5028949;28;20021;-86
2022/09/10 06:46:14;;;;;;;2.45;0.20;;;14.20;99.90;;;;;;5027853;28;20021;-86
2022/09/10 06:48:40;;;;;;;0.47;0.10;;;14.20;99.90;;;;;;5025867;28;20029;-86
2022/09/10 06:51:07;;;;;;;0.57;0.10;;;14.30;99.90;;;;;;5028348;28;20026;-86
2022/09/10 06:53:34;;;;;;;0.63;0.22;;;14.80;99.90;;;;;;5030133;28;20127;-86
2022/09/10 06:56:01;;;;;;;0.75;0.10;;;14.30;99.90;;;;;;5012504;28;20018;-85
2022/09/10 06:58:30;;;;;;;0.28;0.10;;;14.40;99.90;;;;;;5026710;28;20022;-86
2022/09/10 07:00:57;;;;;;;0.52;0.20;;;14.50;99.90;;;;;;5013122;28;20021;-86
2022/09/10 07:03:23;;;;;;;0.80;0.13;;;14.50;99.90;;;;;;5012966;28;20331;-86
2022/09/10 07:05:49;;;;;;;0.30;0.10;;;14.50;99.90;;;;;;5029466;28;20053;-85
2022/09/10 07:08:16;;;;;;;0.30;0.10;;;14.50;99.90;;;;;;5013230;28;20016;-86
2022/09/10 07:10:43;;;;;;;0.30;0.10;;;14.60;99.90;;;;;;5018233;28;20022;-86
2022/09/10 07:13:11;;;;;;;0.55;0.15;;;14.70;99.90;;;;;;5028790;28;20025;-86
2022/09/10 07:15:45;;;;;;;0.40;0.10;;;14.70;99.90;;;;;;5014655;28;20025;-85
2022/09/10 07:18:14;;;;;;;0.40;0.10;;;14.80;99.90;;;;;;5029022;28;20383;-85
2022/09/10 07:20:42;;;;;;;0.20;0.10;;;14.50;99.90;;;;;;5027447;28;20042;-86
2022/09/10 07:23:10;;;;;;;0.50;0.15;;;14.70;99.90;;;;;;5016375;28;20501;-87
2022/09/10 07:25:36;;;;;;;0.35;0.13;;;14.80;99.90;;;;;;5026630;28;20075;-86
2022/09/10 07:28:02;;;;;;;1.00;0.10;;;15.10;99.90;;;;;;5013304;28;20025;-86
2022/09/10 07:30:28;;;;;;;0.28;0.10;;;15.00;99.90;;;;;;5000200;28;20022;-84
2022/09/10 07:32:54;;;;;;;0.90;0.20;;;15.00;99.90;;;;;;5026080;28;20792;-86
2022/09/10 07:35:20;;;;;;;0.63;0.17;;;14.90;99.90;;;;;;5029702;28;20046;-85
2022/09/10 07:37:46;;;;;;;0.93;0.25;;;15.00;99.90;;;;;;5026789;28;20030;-84
2022/09/10 07:40:11;;;;;;;0.10;0.00;;;15.00;99.90;;;;;;5019302;28;20032;-86
2022/09/10 07:42:37;;;;;;;0.68;0.10;;;15.00;99.90;;;;;;5016745;28;20125;-86
2022/09/10 07:45:04;;;;;;;1.05;0.20;;;14.90;99.90;;;;;;5032290;28;20390;-86
2022/09/10 07:47:30;;;;;;;1.55;0.10;;;15.20;99.90;;;;;;5027785;28;20033;-85
2022/09/10 07:49:56;;;;;;;0.95;0.10;;;15.10;99.90;;;;;;5013430;28;20482;-86
2022/09/10 07:52:22;;;;;;;0.30;0.10;;;15.20;99.90;;;;;;5014423;28;20020;-86
2022/09/10 07:54:47;;;;;;;0.30;0.10;;;15.60;99.90;;;;;;5031181;28;20040;-85
2022/09/10 07:57:16;;;;;;;0.17;0.10;;;15.10;99.90;;;;;;5014832;28;20026;-85
2022/09/10 07:59:41;;;;;;;0.20;0.10;;;15.80;99.90;;;;;;5015052;28;20065;-86
2022/09/10 08:02:12;;;;;;;0.90;0.43;;;15.20;99.90;;;;;;5028704;28;20110;-83
2022/09/10 08:04:38;;;;;;;0.57;0.10;;;15.20;99.90;;;;;;5029983;28;20033;-84
2022/09/10 08:07:04;;;;;;;0.88;0.20;;;15.20;99.90;;;;;;5031533;28;20017;-83
2022/09/10 08:09:29;;;;;;;1.17;0.25;;;15.30;99.90;;;;;;5032131;28;20079;-85
2022/09/10 08:11:55;;;;;;;0.68;0.05;;;15.30;99.90;;;;;;5016792;28;20018;-85
2022/09/10 08:14:21;;;;;;;0.63;0.20;;;15.70;99.90;;;;;;5018704;28;20395;-85
2022/09/10 08:16:47;;;;;;;0.10;0.10;;;15.60;99.90;;;;;;5032631;28;20063;-85
2022/09/10 08:19:13;;;;;;;0.80;0.10;;;15.60;99.90;;;;;;5016413;28;20137;-85
2022/09/10 08:21:39;;;;;;;0.00;0.00;;;15.70;99.90;;;;;;5013949;28;20056;-84
2022/09/10 08:24:06;;;;;;;0.57;0.10;;;15.80;99.90;;;;;;5013695;28;20052;-85
2022/09/10 08:26:32;;;;;;;0.00;0.00;;;15.90;99.90;;;;;;5029325;28;20049;-84
2022/09/10 08:28:58;;;;;;;0.30;0.10;;;16.00;99.90;;;;;;5044408;23;20041;-84
2022/09/10 08:31:25;;;;;;;0.05;0.00;;;16.00;99.90;;;;;;5011881;28;20026;-84
2022/09/10 08:33:52;;;;;;;0.68;0.20;;;16.70;99.90;;;;;;5011312;28;20502;-83
2022/09/10 08:36:20;;;;;;;2.85;0.20;;;15.90;99.90;;;;;;5009291;28;20029;-84
2022/09/10 08:38:47;;;;;;;0.20;0.10;;;16.20;99.90;;;;;;4999532;28;20560;-83
2022/09/10 08:41:41;;;;;;;0.55;0.10;;;16.00;99.90;;;;;;4991611;28;20045;-84
2022/09/10 08:44:30;;;;;;;0.30;0.10;;;16.20;99.90;;;;;;4993464;28;20034;-83
2022/09/10 08:47:03;;;;;;;0.00;0.00;;;16.30;99.90;;;;;;4990685;28;20029;-84
2022/09/10 08:49:59;;;;;;;0.00;0.00;;;16.40;99.90;;;;;;4993718;28;20501;-84
2022/09/10 08:52:54;;;;;;;0.00;0.00;;;16.80;99.90;;;;;;5010038;28;20029;-84
2022/09/10 08:55:20;;;;;;;0.45;0.20;;;17.10;99.90;;;;;;5002574;28;20026;-84
2022/09/10 08:57:58;;;;;;;0.08;0.00;;;17.30;99.90;;;;;;5003188;28;20400;-83
2022/09/10 09:00:31;;;;;;;0.40;0.08;;;17.40;99.90;;;;;;4994333;28;20021;-83
2022/09/10 09:03:01;;;;;;;0.80;0.10;;;17.40;99.90;;;;;;4998270;28;20026;-83
2022/09/10 09:05:32;;;;;;;2.60;0.20;;;17.60;99.90;;;;;;5017569;28;20029;-83
2022/09/10 09:07:58;;;;;;;2.65;0.10;;;17.50;99.90;;;;;;5011965;28;20028;-83
2022/09/10 09:10:24;;;;;;;1.15;0.20;;;17.60;99.90;;;;;;4996983;28;20038;-83
2022/09/10 09:13:12;;;;;;;0.10;0.00;;;17.70;99.90;;;;;;5025069;28;20029;-84
2022/09/10 09:15:50;;;;;;;0.75;0.20;;;18.00;99.90;;;;;;4995293;28;20025;-83
2022/09/10 09:18:49;;;;;;;1.55;0.10;;;18.00;99.90;;;;;;4992537;28;20034;-83
2022/09/10 09:21:34;;;;;;;0.40;0.10;;;18.10;99.90;;;;;;5003077;28;21484;-82
2022/09/10 09:24:07;;;;;;;1.67;0.10;;;18.00;99.90;;;;;;4983970;28;20058;-82
2022/09/10 09:26:35;;;;;;;1.55;0.10;;;18.00;99.90;;;;;;5010009;28;20030;-83
2022/09/10 09:29:15;;;;;;;0.77;0.10;;;17.90;99.90;;;;;;5009002;28;20041;-83
2022/09/10 09:31:46;;;;;;;0.55;0.10;;;17.90;99.90;;;;;;5007948;28;20026;-82
2022/09/10 09:34:38;;;;;;;0.35;0.10;;;17.90;99.90;;;;;;5008872;28;20026;-83
2022/09/10 09:37:15;;;;;;;0.28;0.05;;;18.00;99.90;;;;;;5010141;28;20025;-82
2022/09/10 09:40:05;;;;;;;1.02;0.10;;;18.00;99.90;;;;;;4991658;28;20042;-81
2022/09/10 09:42:46;;;;;;;0.20;0.10;;;18.10;99.90;;;;;;5008283;28;20041;-82
2022/09/10 09:45:23;;;;;;;1.75;0.60;;;18.20;99.90;;;;;;5009482;28;20030;-82
2022/09/10 09:47:49;;;;;;;0.35;0.20;;;18.20;99.90;;;;;;5008013;28;20474;-83
2022/09/10 09:50:17;;;;;;;0.55;0.10;;;18.20;99.90;;;;;;4991809;28;20029;-83
2022/09/10 09:52:44;;;;;;;0.63;0.00;;;18.20;99.90;;;;;;5003991;28;20022;-83
2022/09/10 09:55:29;;;;;;;1.48;0.10;;;18.10;99.90;;;;;;4990829;28;20039;-83
2022/09/10 09:58:20;;;;;;;0.55;0.10;;;18.20;99.90;;;;;;5009211;28;20060;-83
2022/09/10 10:01:11;;;;;;;0.75;0.20;;;18.20;99.90;;;;;;5004866;28;20518;-83
2022/09/10 10:04:16;;;;;;;0.68;0.05;;;18.20;99.90;;;;;;5004258;28;20510;-83
2022/09/10 10:06:54;;;;;;;0.20;0.10;;;18.30;99.90;;;;;;5007750;28;20410;-85
2022/09/10 10:09:24;;;;;;;1.20;0.10;;;18.50;99.90;;;;;;4990181;28;20025;-84
2022/09/10 10:11:58;;;;;;;0.40;0.10;;;18.60;99.90;;;;;;5005887;28;20026;-85
2022/09/10 10:14:40;;;;;;;1.02;0.10;;;18.50;99.90;;;;;;4989410;28;20030;-85
2022/09/10 10:17:23;;;;;;;0.30;0.00;;;18.60;99.90;;;;;;4991753;28;20040;-85
2022/09/10 10:20:03;;;;;;;0.10;0.05;;;18.50;99.90;;;;;;5006871;28;20029;-84
2022/09/10 10:22:30;;;;;;;2.08;0.10;;;18.50;99.90;;;;;;5009633;28;20044;-84
2022/09/10 10:24:59;;;;;;;0.30;0.10;;;18.50;99.90;;;;;;4997884;28;20022;-84
2022/09/10 10:27:40;;;;;;;2.10;0.20;;;18.50;99.90;;;;;;4991431;28;20018;-85
2022/09/10 10:30:18;;;;;;;0.95;0.15;;;18.60;99.90;;;;;;5005267;28;20104;-85
2022/09/10 10:33:01;;;;;;;0.10;0.00;;;18.50;99.90;;;;;;5008449;28;20021;-85
2022/09/10 10:35:43;;;;;;;1.35;0.17;;;18.50;99.90;;;;;;5014314;28;20056;-85
2022/09/10 10:38:27;;;;;;;0.25;0.03;;;18.50;99.90;;;;;;4991640;28;20025;-85
2022/09/10 10:41:28;;;;;;;0.85;0.20;;;18.70;99.90;;;;;;5008098;28;20166;-86
2022/09/10 10:44:13;;;;;;;0.00;0.00;;;18.90;99.90;;;;;;5004424;28;20036;-84
2022/09/10 10:47:30;;;;;;;0.47;0.17;;;19.00;99.90;;;;;;5011319;28;20030;-85
2022/09/10 10:50:17;;;;;;;0.45;0.10;;;19.00;99.90;;;;;;4951779;28;20096;-85
2022/09/10 10:53:04;;;;;;;0.00;0.00;;;19.10;99.90;;;;;;5007959;28;20096;-84
2022/09/10 10:55:39;;;;;;;0.20;0.00;;;19.50;99.90;;;;;;5008977;28;20117;-84
2022/09/10 10:58:32;;;;;;;0.35;0.00;;;19.70;99.90;;;;;;5008430;28;20018;-83
2022/09/10 11:01:18;;;;;;;0.50;0.00;;;20.00;99.90;;;;;;5007303;28;20022;-83
2022/09/10 11:03:59;;;;;;;0.05;0.00;;;20.20;99.90;;;;;;5007687;28;20574;-85
2022/09/10 11:06:37;;;;;;;1.35;0.15;;;20.60;99.90;;;;;;4991152;28;20066;-85
2022/09/10 11:09:09;;;;;;;0.60;0.10;;;20.80;99.90;;;;;;4990359;28;20025;-84
2022/09/10 11:12:01;;;;;;;0.95;0.15;;;20.60;99.90;;;;;;5010915;28;20022;-84
2022/09/10 11:14:44;;;;;;;0.08;0.00;;;20.40;99.90;;;;;;5006952;28;20018;-85
2022/09/10 11:17:10;;;;;;;0.55;0.00;;;20.30;99.90;;;;;;4990303;28;20026;-85
2022/09/10 11:19:41;;;;;;;1.15;0.10;;;20.20;99.90;;;;;;5009076;28;20023;-85
2022/09/10 11:22:18;;;;;;;0.98;0.13;;;20.00;99.90;;;;;;5009705;28;20072;-85
2022/09/10 11:24:48;;;;;;;0.20;0.03;;;19.90;99.90;;;;;;5006285;28;20029;-85
2022/09/10 11:27:19;;;;;;;0.88;0.10;;;19.60;99.90;;;;;;4994338;28;20501;-85
2022/09/10 11:30:08;;;;;;;0.45;0.03;;;20.00;99.90;;;;;;4994300;28;20022;-85
2022/09/10 11:32:49;;;;;;;0.30;0.00;;;20.70;99.90;;;;;;5012503;28;20105;-85
2022/09/10 11:35:30;;;;;;;1.60;0.03;;;20.80;99.90;;;;;;5011620;28;20017;-84
2022/09/10 11:38:35;;;;;;;0.82;0.13;;;20.60;99.90;;;;;;5008076;28;20021;-84
2022/09/10 11:41:10;;;;;;;0.28;0.00;;;20.80;99.90;;;;;;5008727;28;20049;-84
2022/09/10 11:44:05;;;;;;;1.75;0.20;;;20.90;99.90;;;;;;4994296;28;20034;-83
2022/09/10 11:46:42;;;;;;;0.80;0.13;;;20.90;99.90;;;;;;4993632;28;20022;-85
2022/09/10 11:49:28;;;;;;;0.65;0.00;;;21.20;99.90;;;;;;5011503;28;20033;-85
2022/09/10 11:51:55;;;;;;;0.03;0.00;;;21.30;99.90;;;;;;5009381;28;20048;-83
2022/09/10 11:54:27;;;;;;;1.55;0.38;;;21.40;99.90;;;;;;5009107;28;20032;-85
2022/09/10 11:57:14;;;;;;;0.15;0.10;;;21.10;99.90;;;;;;4994377;28;20022;-83
2022/09/10 12:00:01;;;;;;;0.10;0.10;;;21.60;99.90;;;;;;5010570;28;20079;-85
2022/09/10 12:03:02;;;;;;;3.28;0.10;;;21.80;99.90;;;;;;4992820;28;20502;-84
2022/09/10 12:05:47;;;;;;;0.57;0.10;;;21.70;99.90;;;;;;5009882;28;20029;-85
2022/09/10 12:08:31;;;;;;;0.50;0.10;;;22.20;99.90;;;;;;5010317;28;20025;-85
2022/09/10 12:11:26;;;;;;;0.63;0.10;;;22.80;99.90;;;;;;5015776;28;20028;-85
2022/09/10 12:13:52;;;;;;;0.08;0.00;;;23.00;99.90;;;;;;5017302;28;20010;-85
2022/09/10 12:16:49;;;;;;;3.50;0.20;;;23.00;99.20;;;;;;5000858;28;20032;-86
2022/09/10 12:19:35;;;;;;;0.93;0.20;;;23.20;98.30;;;;;;5003795;28;20038;-85
2022/09/10 12:22:24;;;;;;;0.57;0.10;;;23.50;98.40;;;;;;5011451;28;20018;-85
2022/09/10 12:24:53;;;;;;;0.55;0.05;;;23.20;98.20;;;;;;5010379;28;20029;-86
2022/09/10 12:27:19;;;;;;;0.30;0.03;;;22.70;98.00;;;;;;4993621;28;20101;-84
2022/09/10 12:29:45;;;;;;;1.08;0.38;;;22.50;99.10;;;;;;5008406;28;20100;-85
2022/09/10 12:32:19;;;;;;;0.55;0.00;;;21.70;99.20;;;;;;4993725;28;20494;-85
2022/09/10 12:34:49;;;;;;;0.98;0.10;;;21.50;99.30;;;;;;5010538;28;20084;-85
2022/09/10 12:37:26;;;;;;;0.15;0.10;;;21.00;99.70;;;;;;5009875;28;20045;-85
2022/09/10 12:40:34;;;;;;;0.60;0.10;;;20.90;99.90;;;;;;4992726;28;20379;-85
2022/09/10 12:43:42;;;;;;;1.55;0.10;;;20.60;99.90;;;;;;4983301;28;20517;-85
2022/09/10 12:46:07;;;;;;;0.00;0.00;;;20.40;99.90;;;;;;5011663;28;20066;-84
2022/09/10 12:48:40;;;;;;;1.85;0.10;;;20.20;99.90;;;;;;4992446;28;20034;-84
2022/09/10 12:51:29;;;;;;;0.00;0.00;;;20.10;99.90;;;;;;5008995;28;20018;-84
2022/09/10 12:54:03;;;;;;;0.93;0.10;;;19.90;99.90;;;;;;5009489;28;20556;-85
2022/09/10 12:56:41;;;;;;;0.20;0.00;;;19.90;99.90;;;;;;5008472;28;20105;-84
2022/09/10 12:59:38;;;;;;;0.52;0.22;;;19.80;99.90;;;;;;5008437;28;20047;-85
2022/09/10 13:02:39;;;;;;;0.63;0.10;;;19.60;99.90;;;;;;4986962;28;20434;-85
2022/09/10 13:05:17;;;;;;;1.00;0.20;;;19.60;99.90;;;;;;5011834;28;20072;-85
2022/09/10 13:07:48;;;;;;;0.82;0.20;;;19.60;99.90;;;;;;5010585;28;20109;-84
2022/09/10 13:10:23;;;;;;;1.55;0.20;;;19.70;99.90;;;;;;4991632;28;20026;-84
2022/09/10 13:13:05;;;;;;;1.17;0.03;;;19.70;99.90;;;;;;5007425;28;20010;-85